Time;durP1;ratioP1;P1;durP2;ratioP2;P2;SDS_P1;SDS_P2;PMS_P1;PMS_P2;Temp;Humidity;BMP_temperature;BMP_pressure;BME280_temperature;BME280_humidity;BME280_pressure;Samples;Min_cycle;Max_cycle;Signal;HPM_P1;HPM_P2
2020/12/05 00:00:39;;;;;;;1999.90;999.90;;;5.30;99.90;;;;;;4985849;28;20167;-88
2020/12/05 00:03:04;;;;;;;1999.90;999.90;;;5.30;99.90;;;;;;4985433;28;20222;-88
2020/12/05 00:05:36;;;;;;;1999.90;999.90;;;5.30;99.90;;;;;;4985772;28;20199;-87
2020/12/05 00:08:12;;;;;;;1999.90;999.90;;;5.40;99.90;;;;;;4985175;28;20191;-87
2020/12/05 00:10:37;;;;;;;1999.90;999.90;;;5.30;99.90;;;;;;4986159;28;20165;-87
2020/12/05 00:13:03;;;;;;;1999.90;999.90;;;5.30;99.90;;;;;;4984855;28;20195;-87
2020/12/05 00:15:37;;;;;;;1999.90;999.90;;;5.30;99.90;;;;;;4967678;28;20203;-87
2020/12/05 00:18:03;;;;;;;1999.90;999.90;;;5.20;99.90;;;;;;4984382;28;20171;-87
2020/12/05 00:20:29;;;;;;;1999.90;999.90;;;5.20;99.90;;;;;;4985458;28;20187;-87
2020/12/05 00:22:55;;;;;;;1999.90;999.90;;;5.20;99.90;;;;;;4985372;28;20231;-87
2020/12/05 00:25:23;;;;;;;1999.90;999.90;;;5.20;99.90;;;;;;4984550;28;20179;-87
2020/12/05 00:27:49;;;;;;;1999.90;999.90;;;5.20;99.90;;;;;;4982906;28;20249;-87
2020/12/05 00:30:15;;;;;;;1999.90;999.90;;;5.20;99.90;;;;;;4984432;28;20195;-87
2020/12/05 00:32:40;;;;;;;1999.90;999.90;;;5.20;99.90;;;;;;4982397;28;20254;-87
2020/12/05 00:35:06;;;;;;;1999.90;999.90;;;5.20;99.90;;;;;;4965186;28;20410;-86
2020/12/05 00:37:32;;;;;;;1999.90;999.90;;;5.20;99.90;;;;;;4981494;28;20175;-86
2020/12/05 00:39:58;;;;;;;1999.90;999.90;;;5.20;99.90;;;;;;4981960;28;20402;-87
2020/12/05 00:42:25;;;;;;;1999.90;999.90;;;5.20;99.90;;;;;;4981598;28;20167;-86
2020/12/05 00:44:53;;;;;;;1999.90;999.90;;;5.20;99.90;;;;;;4963677;28;20175;-87
2020/12/05 00:47:19;;;;;;;1999.90;999.90;;;5.20;99.90;;;;;;4980563;28;20178;-87
2020/12/05 00:49:45;;;;;;;1999.90;999.90;;;5.20;99.90;;;;;;4981106;28;20174;-86
2020/12/05 00:52:13;;;;;;;1999.90;999.90;;;5.20;99.90;;;;;;4980686;28;20191;-86
2020/12/05 00:54:39;;;;;;;1999.90;999.90;;;5.10;99.90;;;;;;4981104;28;20531;-87
2020/12/05 00:57:07;;;;;;;1999.90;999.90;;;5.20;99.90;;;;;;4981013;28;20191;-87
2020/12/05 00:59:33;;;;;;;1999.90;999.90;;;5.20;99.90;;;;;;4980719;28;20173;-87
2020/12/05 01:01:59;;;;;;;1999.90;999.90;;;5.20;99.90;;;;;;4964068;28;20187;-86
2020/12/05 01:04:24;;;;;;;1999.90;999.90;;;5.20;99.90;;;;;;4963543;28;20182;-87
2020/12/05 01:06:50;;;;;;;1999.90;999.90;;;5.20;99.90;;;;;;4980861;28;20247;-87
2020/12/05 01:09:16;;;;;;;1999.90;999.90;;;5.20;99.90;;;;;;4979662;28;20406;-86
2020/12/05 01:11:45;;;;;;;1999.90;999.90;;;5.10;99.90;;;;;;4980491;28;20167;-87
2020/12/05 01:14:14;;;;;;;1999.90;999.90;;;5.00;99.90;;;;;;4980660;28;20276;-87
2020/12/05 01:16:39;;;;;;;1999.90;999.90;;;4.90;99.90;;;;;;4963337;28;20191;-87
2020/12/05 01:19:05;;;;;;;1999.90;999.90;;;5.00;99.90;;;;;;4979978;28;20234;-87
2020/12/05 01:21:31;;;;;;;1999.90;999.90;;;5.00;99.90;;;;;;4979875;28;20168;-86
2020/12/05 01:23:57;;;;;;;1999.90;999.90;;;5.00;99.90;;;;;;4979907;28;20409;-86
2020/12/05 01:26:24;;;;;;;1999.90;999.90;;;5.10;99.90;;;;;;4963294;28;20415;-87
2020/12/05 01:28:53;;;;;;;1999.90;999.90;;;5.10;99.90;;;;;;4979985;28;20163;-87
2020/12/05 01:31:18;;;;;;;1999.90;999.90;;;5.20;99.90;;;;;;4980003;28;20267;-86
2020/12/05 01:33:44;;;;;;;1999.90;999.90;;;5.20;99.90;;;;;;4979386;28;20214;-86
2020/12/05 01:36:10;;;;;;;1999.90;999.90;;;5.20;99.90;;;;;;4979956;28;20166;-87
2020/12/05 01:38:36;;;;;;;1999.90;999.90;;;5.20;99.90;;;;;;4979621;28;20178;-87
2020/12/05 01:41:01;;;;;;;1999.90;999.90;;;5.20;99.90;;;;;;4980066;28;20246;-86
2020/12/05 01:43:31;;;;;;;1999.90;999.90;;;5.30;99.90;;;;;;4980373;28;20417;-87
2020/12/05 01:46:29;;;;;;;1999.90;999.90;;;5.30;99.90;;;;;;4980048;28;20661;-86
2020/12/05 01:48:55;;;;;;;1999.90;999.90;;;5.30;99.90;;;;;;4962897;28;20166;-87
2020/12/05 01:51:20;;;;;;;1999.90;999.90;;;5.20;99.90;;;;;;4980001;28;20163;-87
2020/12/05 01:53:49;;;;;;;1999.90;999.90;;;5.20;99.90;;;;;;4980509;28;20187;-86
2020/12/05 01:56:17;;;;;;;1999.90;999.90;;;5.20;99.90;;;;;;4963591;28;20254;-86
2020/12/05 01:58:42;;;;;;;1999.90;999.90;;;5.20;99.90;;;;;;4963035;28;20171;-87
2020/12/05 02:01:11;;;;;;;1999.90;999.90;;;5.20;99.90;;;;;;4979568;28;20165;-87
2020/12/05 02:03:37;;;;;;;1999.90;999.90;;;5.30;99.90;;;;;;4962818;28;20223;-86
2020/12/05 02:06:13;;;;;;;1999.90;999.90;;;5.20;99.90;;;;;;4963259;28;20167;-87
2020/12/05 02:09:09;;;;;;;1999.90;999.90;;;5.30;99.90;;;;;;4979890;28;20663;-87
2020/12/05 02:11:41;;;;;;;1999.90;999.90;;;5.30;99.90;;;;;;4976706;28;20187;-86
2020/12/05 02:14:10;;;;;;;1999.90;999.90;;;5.20;99.90;;;;;;4964206;28;20183;-87
2020/12/05 02:16:41;;;;;;;1999.90;999.90;;;5.20;99.90;;;;;;4985488;28;20667;-87
2020/12/05 02:19:16;;;;;;;1999.90;999.90;;;5.10;99.90;;;;;;4968293;28;20226;-88
2020/12/05 02:21:43;;;;;;;1999.90;999.90;;;5.10;99.90;;;;;;4967010;28;20496;-87
2020/12/05 02:24:09;;;;;;;1999.90;999.90;;;5.20;99.90;;;;;;4984018;28;20171;-87
2020/12/05 02:26:38;;;;;;;1999.90;999.90;;;5.20;99.90;;;;;;4984548;28;20531;-88
2020/12/05 02:29:04;;;;;;;1999.90;999.90;;;5.00;99.90;;;;;;4983785;28;20184;-88
2020/12/05 02:31:30;;;;;;;1999.90;999.90;;;5.00;99.90;;;;;;4966473;28;20175;-88
2020/12/05 02:33:56;;;;;;;1999.90;999.90;;;5.00;99.90;;;;;;4983198;28;20446;-87
2020/12/05 02:36:22;;;;;;;1999.90;999.90;;;5.00;99.90;;;;;;4983577;28;20173;-88
2020/12/05 02:39:09;;;;;;;1999.90;999.90;;;5.00;99.90;;;;;;4984281;28;20462;-88
2020/12/05 02:41:37;;;;;;;1999.90;999.90;;;5.10;99.90;;;;;;4983853;28;20199;-88
2020/12/05 02:44:03;;;;;;;1999.90;999.90;;;5.10;99.90;;;;;;4983602;28;20542;-88
2020/12/05 02:46:29;;;;;;;1999.90;999.90;;;5.00;99.90;;;;;;4983921;28;20163;-88
2020/12/05 02:48:57;;;;;;;1999.90;999.90;;;5.10;99.90;;;;;;4983427;28;20406;-88
2020/12/05 02:51:26;;;;;;;1999.90;999.90;;;5.10;99.90;;;;;;4983447;28;20172;-88
2020/12/05 02:53:52;;;;;;;1999.90;999.90;;;5.10;99.90;;;;;;4983357;28;20265;-88
2020/12/05 02:56:18;;;;;;;1999.90;999.90;;;5.10;99.90;;;;;;4986985;28;20160;-89
2020/12/05 02:58:47;;;;;;;1999.90;999.90;;;5.20;99.90;;;;;;4970001;28;20171;-88
2020/12/05 03:01:13;;;;;;;1999.90;999.90;;;5.10;99.90;;;;;;4987003;28;20167;-88
2020/12/05 03:03:40;;;;;;;1999.90;999.90;;;5.20;99.90;;;;;;4987296;28;20163;-88
2020/12/05 03:06:06;;;;;;;1999.90;999.90;;;5.20;99.90;;;;;;4986663;28;20222;-88
2020/12/05 03:08:32;;;;;;;1999.90;999.90;;;5.20;99.90;;;;;;4986900;28;20163;-88
2020/12/05 03:11:03;;;;;;;1999.90;999.90;;;5.20;99.90;;;;;;4987543;28;20440;-88
2020/12/05 03:13:29;;;;;;;1999.90;999.90;;;5.20;99.90;;;;;;4986563;28;20214;-88
2020/12/05 03:15:55;;;;;;;1999.90;999.90;;;5.10;99.90;;;;;;4969694;28;20190;-88
2020/12/05 03:18:20;;;;;;;1999.90;999.90;;;5.10;99.90;;;;;;4969577;28;20411;-88
2020/12/05 03:20:46;;;;;;;1999.90;999.90;;;5.10;99.90;;;;;;4969767;28;20171;-88
2020/12/05 03:23:12;;;;;;;1999.90;999.90;;;5.20;99.90;;;;;;4987073;28;20167;-88
2020/12/05 03:25:38;;;;;;;1999.90;999.90;;;5.10;99.90;;;;;;4987190;28;20174;-88
2020/12/05 03:28:11;;;;;;;1999.90;999.90;;;4.90;99.90;;;;;;4987056;28;20411;-88
2020/12/05 03:30:37;;;;;;;1999.90;999.90;;;4.90;99.90;;;;;;4986864;28;20215;-88
2020/12/05 03:33:02;;;;;;;1999.90;999.90;;;4.90;99.90;;;;;;4986898;28;20259;-88
2020/12/05 03:35:29;;;;;;;1999.90;999.90;;;4.90;99.90;;;;;;4985612;28;20163;-88
2020/12/05 03:37:54;;;;;;;1999.90;999.90;;;4.80;99.90;;;;;;4969555;28;20167;-88
2020/12/05 03:40:20;;;;;;;1999.90;999.90;;;4.90;99.90;;;;;;4968716;28;20206;-88
2020/12/05 03:42:46;;;;;;;1999.90;999.90;;;4.80;99.90;;;;;;4986965;28;20207;-88
2020/12/05 03:45:15;;;;;;;1999.90;999.90;;;4.80;99.90;;;;;;4986613;28;20415;-88
2020/12/05 03:47:43;;;;;;;1999.90;999.90;;;4.80;99.90;;;;;;4986548;28;20760;-88
2020/12/05 03:50:12;;;;;;;1999.90;999.90;;;4.80;99.90;;;;;;4985870;28;20195;-88
2020/12/05 03:52:38;;;;;;;1999.90;999.90;;;4.80;99.90;;;;;;4986057;28;20670;-88
2020/12/05 03:55:04;;;;;;;1999.90;999.90;;;4.80;99.90;;;;;;4986348;28;20182;-88
2020/12/05 03:57:29;;;;;;;1999.90;999.90;;;4.80;99.90;;;;;;4986264;28;20167;-88
2020/12/05 03:59:55;;;;;;;1999.90;999.90;;;4.90;99.90;;;;;;4986047;28;20402;-88
2020/12/05 04:02:21;;;;;;;1999.90;999.90;;;4.80;99.90;;;;;;4986082;28;20418;-88
2020/12/05 04:04:47;;;;;;;1999.90;999.90;;;4.80;99.90;;;;;;4986157;28;20167;-87
2020/12/05 04:07:12;;;;;;;1999.90;999.90;;;4.80;99.90;;;;;;4968605;28;20582;-88
2020/12/05 04:09:38;;;;;;;1999.90;999.90;;;4.80;99.90;;;;;;4968973;28;20425;-88
2020/12/05 04:12:04;;;;;;;1999.90;999.90;;;4.70;99.90;;;;;;4986523;28;20636;-88
2020/12/05 04:14:30;;;;;;;1999.90;999.90;;;4.70;99.90;;;;;;4969349;28;20187;-88
2020/12/05 04:16:55;;;;;;;1999.90;999.90;;;4.70;99.90;;;;;;4985927;28;20186;-88
2020/12/05 04:19:29;;;;;;;1999.90;999.90;;;4.70;99.90;;;;;;4968846;28;20264;-88
2020/12/05 04:21:55;;;;;;;1999.90;999.90;;;4.60;99.90;;;;;;4986274;28;20156;-88
2020/12/05 04:24:20;;;;;;;1999.90;999.90;;;4.60;99.90;;;;;;4985148;28;20173;-88
2020/12/05 04:26:49;;;;;;;1999.90;999.90;;;4.70;99.90;;;;;;4986768;28;20207;-88
2020/12/05 04:29:15;;;;;;;1999.90;999.90;;;4.70;99.90;;;;;;4968811;28;20410;-88
2020/12/05 04:31:40;;;;;;;1999.90;999.90;;;4.60;99.90;;;;;;4985700;28;20535;-88
2020/12/05 04:34:06;;;;;;;1999.90;999.90;;;4.60;99.90;;;;;;4985792;28;20198;-88
2020/12/05 04:36:32;;;;;;;1999.90;999.90;;;4.60;99.90;;;;;;4985701;28;20179;-88
2020/12/05 04:38:57;;;;;;;1999.90;999.90;;;4.60;99.90;;;;;;4967644;28;20175;-88
2020/12/05 04:41:24;;;;;;;1999.90;999.90;;;4.70;99.90;;;;;;4968570;28;20198;-88
2020/12/05 04:43:50;;;;;;;1999.90;999.90;;;4.70;99.90;;;;;;4968985;28;20183;-88
2020/12/05 04:46:20;;;;;;;1999.90;999.90;;;4.70;99.90;;;;;;4985350;28;20171;-88
2020/12/05 04:48:47;;;;;;;1999.90;999.90;;;4.60;99.90;;;;;;4967772;28;20411;-88
2020/12/05 04:51:17;;;;;;;1999.90;999.90;;;4.60;99.90;;;;;;4967745;28;20190;-88
2020/12/05 04:53:46;;;;;;;1999.90;999.90;;;4.50;99.90;;;;;;4968645;28;20179;-88
2020/12/05 04:56:15;;;;;;;1999.90;999.90;;;4.50;99.90;;;;;;4985739;28;20175;-88
2020/12/05 04:58:47;;;;;;;1999.90;999.90;;;4.50;99.90;;;;;;4968486;28;20194;-88
2020/12/05 05:01:19;;;;;;;1999.90;999.90;;;4.50;99.90;;;;;;4986017;28;20152;-88
2020/12/05 05:03:48;;;;;;;1999.90;999.90;;;4.50;99.90;;;;;;4984970;28;20178;-88
2020/12/05 05:06:21;;;;;;;1999.90;999.90;;;4.40;99.90;;;;;;4968208;28;20218;-88
2020/12/05 05:08:47;;;;;;;1999.90;999.90;;;4.30;99.90;;;;;;4985103;28;20631;-88
2020/12/05 05:11:16;;;;;;;1999.90;999.90;;;4.30;99.90;;;;;;4990293;28;20581;-87
2020/12/05 05:13:55;;;;;;;1999.90;999.90;;;4.30;99.90;;;;;;4972537;28;20197;-88
2020/12/05 05:16:26;;;;;;;1999.90;999.90;;;4.30;99.90;;;;;;4985421;28;20179;-88
2020/12/05 05:18:52;;;;;;;1999.90;999.90;;;4.30;99.90;;;;;;4969597;28;20170;-88
2020/12/05 05:21:35;;;;;;;1999.90;999.90;;;4.20;99.90;;;;;;4968829;28;20542;-88
2020/12/05 05:24:11;;;;;;;1999.90;999.90;;;4.10;99.90;;;;;;4985553;28;20177;-88
2020/12/05 05:26:37;;;;;;;1999.90;999.90;;;4.20;99.90;;;;;;4985154;28;20238;-88
2020/12/05 05:29:03;;;;;;;1999.90;999.90;;;4.20;99.90;;;;;;4985208;28;20205;-88
2020/12/05 05:31:49;;;;;;;1999.90;999.90;;;4.20;99.90;;;;;;4985604;28;20430;-89
2020/12/05 05:34:20;;;;;;;1999.90;999.90;;;4.20;99.90;;;;;;4968979;28;20179;-88
2020/12/05 05:36:49;;;;;;;1999.90;999.90;;;4.20;99.90;;;;;;4986820;28;20167;-88
2020/12/05 05:39:17;;;;;;;1999.90;999.90;;;4.20;99.90;;;;;;4988540;28;20336;-88
2020/12/05 05:41:50;;;;;;;1999.90;999.90;;;4.10;99.90;;;;;;4986704;28;20520;-88
2020/12/05 05:44:19;;;;;;;1999.90;999.90;;;4.00;99.90;;;;;;4967822;28;20163;-88
2020/12/05 05:46:48;;;;;;;1999.90;999.90;;;4.00;99.90;;;;;;4985456;28;20214;-88
2020/12/05 05:49:34;;;;;;;1999.90;999.90;;;3.90;99.90;;;;;;4967334;28;20230;-88
2020/12/05 05:52:04;;;;;;;1999.90;999.90;;;3.90;99.90;;;;;;4967689;28;20178;-88
2020/12/05 05:54:37;;;;;;;1999.90;999.90;;;3.90;99.90;;;;;;4967855;28;20179;-88
2020/12/05 05:57:06;;;;;;;1999.90;999.90;;;3.90;99.90;;;;;;4967801;28;20162;-88
2020/12/05 05:59:36;;;;;;;1999.90;999.90;;;3.80;99.90;;;;;;4984918;28;20631;-88
2020/12/05 06:02:07;;;;;;;1999.90;999.90;;;3.80;99.90;;;;;;4967569;28;20535;-88
2020/12/05 06:04:35;;;;;;;1999.90;999.90;;;3.80;99.90;;;;;;4968011;28;20163;-88
2020/12/05 06:07:03;;;;;;;1999.90;999.90;;;3.80;99.90;;;;;;4967774;28;20171;-88
2020/12/05 06:09:44;;;;;;;1999.90;999.90;;;3.80;99.90;;;;;;4984631;28;20171;-88
2020/12/05 06:12:19;;;;;;;1999.90;999.90;;;3.80;99.90;;;;;;4984686;28;20170;-88
2020/12/05 06:14:45;;;;;;;1999.90;999.90;;;3.80;99.90;;;;;;4966586;28;20178;-88
2020/12/05 06:17:11;;;;;;;1999.90;999.90;;;3.70;99.90;;;;;;4966829;28;20214;-88
2020/12/05 06:19:41;;;;;;;1999.90;999.90;;;3.70;99.90;;;;;;4984422;28;20187;-88
2020/12/05 06:22:18;;;;;;;1999.90;999.90;;;3.70;99.90;;;;;;4984592;28;20242;-88
2020/12/05 06:24:53;;;;;;;1999.90;999.90;;;3.70;99.90;;;;;;4967752;28;20167;-88
2020/12/05 06:27:20;;;;;;;1999.90;999.90;;;3.80;99.90;;;;;;4984859;28;20190;-88
2020/12/05 06:29:47;;;;;;;1999.90;999.90;;;3.80;99.90;;;;;;4987420;28;20177;-88
2020/12/05 06:32:41;;;;;;;1999.90;999.90;;;3.80;99.90;;;;;;4988337;28;20168;-88
2020/12/05 06:35:32;;;;;;;1999.90;999.90;;;3.90;99.90;;;;;;4971168;28;20194;-88
2020/12/05 06:37:58;;;;;;;1999.90;999.90;;;4.00;99.90;;;;;;4977916;28;20176;-88
2020/12/05 06:40:28;;;;;;;1999.90;999.90;;;4.00;99.90;;;;;;4973960;28;20178;-87
2020/12/05 06:42:56;;;;;;;1999.90;999.90;;;4.00;99.90;;;;;;4988085;28;20442;-87
2020/12/05 06:45:27;;;;;;;1999.90;999.90;;;4.00;99.90;;;;;;4987408;28;20167;-88
2020/12/05 06:48:19;;;;;;;1999.90;999.90;;;4.10;99.90;;;;;;4989062;28;20167;-88
2020/12/05 06:50:46;;;;;;;1999.90;999.90;;;4.10;99.90;;;;;;4980961;28;20314;-88
2020/12/05 06:53:21;;;;;;;1999.90;999.90;;;4.10;99.90;;;;;;4972344;28;20194;-88
2020/12/05 06:55:56;;;;;;;1999.90;999.90;;;4.10;99.90;;;;;;4989417;28;20171;-88
2020/12/05 06:58:39;;;;;;;1999.90;999.90;;;4.20;99.90;;;;;;4989796;28;20285;-88
2020/12/05 07:01:05;;;;;;;1999.90;999.90;;;4.20;99.90;;;;;;4971267;28;20165;-88
2020/12/05 07:03:37;;;;;;;1999.90;999.90;;;4.20;99.90;;;;;;4988963;28;20183;-88
2020/12/05 07:06:03;;;;;;;1999.90;999.90;;;4.20;99.90;;;;;;4989032;28;20395;-87
2020/12/05 07:08:29;;;;;;;1999.90;999.90;;;4.20;99.90;;;;;;4971141;28;20531;-88
2020/12/05 07:11:15;;;;;;;1999.90;999.90;;;4.20;99.90;;;;;;4971681;28;20407;-87
2020/12/05 07:13:48;;;;;;;1999.90;999.90;;;4.20;99.90;;;;;;4989447;28;20528;-87
2020/12/05 07:16:41;;;;;;;1999.90;999.90;;;4.30;99.90;;;;;;4989376;28;20190;-87
2020/12/05 07:19:07;;;;;;;1999.90;999.90;;;4.20;99.90;;;;;;4972167;28;20175;-87
2020/12/05 07:21:32;;;;;;;1999.90;999.90;;;4.20;99.90;;;;;;4972348;28;20571;-88
2020/12/05 07:23:58;;;;;;;1999.90;999.90;;;4.20;99.90;;;;;;4972699;28;20202;-87
2020/12/05 07:26:27;;;;;;;1999.90;999.90;;;4.20;99.90;;;;;;4989119;28;20462;-88
2020/12/05 07:28:57;;;;;;;1999.90;999.90;;;4.20;99.90;;;;;;4971496;28;20429;-88
2020/12/05 07:31:26;;;;;;;1999.90;999.90;;;4.30;99.90;;;;;;4989779;28;20172;-88
2020/12/05 07:33:53;;;;;;;1999.90;999.90;;;4.40;99.90;;;;;;4971997;28;20196;-88
2020/12/05 07:39:19;;;;;;;1999.90;999.90;;;4.30;99.90;;;;;;4935907;28;20259;-88
2020/12/05 07:41:52;;;;;;;1999.90;999.90;;;4.30;99.90;;;;;;4989756;28;20163;-88
2020/12/05 07:44:37;;;;;;;;;;;;;;;;;;;;;
2020/12/05 07:47:18;;;;;;;1999.90;999.90;;;4.30;99.90;;;;;;4989088;28;20247;-87
2020/12/05 07:49:52;;;;;;;1999.90;999.90;;;4.30;99.90;;;;;;4987845;28;20158;-87
2020/12/05 07:52:22;;;;;;;1999.90;999.90;;;4.40;99.90;;;;;;4971962;28;20167;-88
2020/12/05 07:54:51;;;;;;;1999.90;999.90;;;4.40;99.90;;;;;;4987982;28;20194;-88
2020/12/05 07:57:28;;;;;;;1999.90;999.90;;;4.40;99.90;;;;;;4971545;28;20172;-88
2020/12/05 08:00:14;;;;;;;1999.90;999.90;;;4.40;99.90;;;;;;4989392;28;20174;-88
2020/12/05 08:03:11;;;;;;;1999.90;999.90;;;4.40;99.90;;;;;;4989639;28;20155;-87
2020/12/05 08:05:40;;;;;;;1999.90;999.90;;;4.40;99.90;;;;;;4984160;28;20188;-88
2020/12/05 08:08:09;;;;;;;1999.90;999.90;;;4.40;99.90;;;;;;4971055;28;20598;-87
2020/12/05 08:10:35;;;;;;;1999.90;999.90;;;4.40;99.90;;;;;;4989282;28;20177;-87
2020/12/05 08:13:16;;;;;;;1999.90;999.90;;;4.40;99.90;;;;;;4988810;28;20269;-87
2020/12/05 08:15:47;;;;;;;1999.90;999.90;;;4.50;99.90;;;;;;5035013;23;20578;-84
2020/12/05 08:18:31;;;;;;;1999.90;999.90;;;4.50;99.90;;;;;;4979937;28;20584;-84
2020/12/05 08:21:05;;;;;;;1999.90;999.90;;;4.50;99.90;;;;;;4981131;28;20140;-84
2020/12/05 08:23:43;;;;;;;1999.90;999.90;;;4.60;99.90;;;;;;4981374;28;20151;-85
2020/12/05 08:26:24;;;;;;;1999.90;999.90;;;4.70;99.90;;;;;;4984478;28;20219;-84
2020/12/05 08:28:52;;;;;;;1999.90;999.90;;;4.70;99.90;;;;;;4984898;28;20175;-84
2020/12/05 08:31:29;;;;;;;1999.90;999.90;;;4.70;99.90;;;;;;4984881;28;20183;-84
2020/12/05 08:33:58;;;;;;;1999.90;999.90;;;4.70;99.90;;;;;;4983352;28;20185;-85
2020/12/05 08:36:34;;;;;;;1999.90;999.90;;;4.80;99.90;;;;;;4982868;28;20183;-85
2020/12/05 08:39:08;;;;;;;1999.90;999.90;;;4.90;99.90;;;;;;4982678;28;20155;-84
2020/12/05 08:41:53;;;;;;;1999.90;999.90;;;5.00;99.90;;;;;;4983742;28;20155;-84
2020/12/05 08:44:21;;;;;;;1999.90;999.90;;;5.10;99.90;;;;;;4983838;28;20167;-85
2020/12/05 08:46:59;;;;;;;1999.90;999.90;;;5.20;99.90;;;;;;4983100;28;20647;-87
2020/12/05 08:49:38;;;;;;;1999.90;999.90;;;5.20;99.90;;;;;;4983108;28;20194;-84
2020/12/05 08:52:05;;;;;;;1999.90;999.90;;;5.30;99.90;;;;;;4982062;28;20584;-84
2020/12/05 08:54:32;;;;;;;1999.90;999.90;;;5.50;99.90;;;;;;4964628;28;20184;-84
2020/12/05 08:57:08;;;;;;;1999.90;999.90;;;5.60;99.90;;;;;;4964694;28;20167;-85
2020/12/05 08:59:35;;;;;;;1999.90;999.90;;;5.70;99.90;;;;;;4964810;28;20304;-84
2020/12/05 09:02:04;;;;;;;1999.90;999.90;;;5.70;99.90;;;;;;4983117;28;20187;-85
2020/12/05 09:04:36;;;;;;;1999.90;999.90;;;5.60;99.90;;;;;;4980853;28;20238;-84
2020/12/05 09:07:18;;;;;;;1999.90;999.90;;;5.60;99.90;;;;;;4962346;28;20182;-84
2020/12/05 09:09:47;;;;;;;1999.90;999.90;;;5.60;99.90;;;;;;4976713;28;20255;-84
2020/12/05 09:12:15;;;;;;;1999.90;999.90;;;5.60;99.90;;;;;;4975538;28;20171;-84
2020/12/05 09:14:42;;;;;;;1999.90;999.90;;;5.60;99.90;;;;;;4975691;28;20300;-84
2020/12/05 09:17:26;;;;;;;1999.90;999.90;;;5.60;99.90;;;;;;4975401;28;20167;-84
2020/12/05 09:19:58;;;;;;;1999.90;999.90;;;5.60;99.90;;;;;;4975324;28;20167;-84
2020/12/05 09:22:31;;;;;;;1999.90;999.90;;;5.60;99.90;;;;;;4958142;28;20166;-84
2020/12/05 09:24:57;;;;;;;1999.90;999.90;;;5.60;99.90;;;;;;4975240;28;20162;-85
2020/12/05 09:27:34;;;;;;;1999.90;999.90;;;5.60;99.90;;;;;;4957704;28;20167;-85
2020/12/05 09:30:00;;;;;;;1999.90;999.90;;;5.70;99.90;;;;;;4975719;28;20630;-85
2020/12/05 09:32:43;;;;;;;1999.90;999.90;;;5.70;99.90;;;;;;4975855;28;20191;-85
2020/12/05 09:35:15;;;;;;;1999.90;999.90;;;5.80;99.90;;;;;;4975486;28;20418;-85
2020/12/05 09:37:42;;;;;;;1999.90;999.90;;;5.90;99.90;;;;;;4975367;28;20287;-85
2020/12/05 09:40:10;;;;;;;1999.90;999.90;;;5.90;99.90;;;;;;4975474;28;20167;-85
2020/12/05 09:42:40;;;;;;;1999.90;999.90;;;5.90;99.90;;;;;;4958025;28;20172;-85
2020/12/05 09:45:07;;;;;;;1999.90;999.90;;;6.00;99.90;;;;;;4957492;28;20178;-85
2020/12/05 09:47:33;;;;;;;1999.90;999.90;;;6.10;99.90;;;;;;4975492;28;20218;-85
2020/12/05 09:50:05;;;;;;;1999.90;999.90;;;6.10;99.90;;;;;;4957765;28;20537;-84
2020/12/05 09:52:34;;;;;;;1999.90;999.90;;;6.10;99.90;;;;;;4957364;28;20273;-85
2020/12/05 09:55:16;;;;;;;1999.90;999.90;;;6.20;99.90;;;;;;4975331;28;20242;-85
2020/12/05 09:57:42;;;;;;;1999.90;999.90;;;6.30;99.90;;;;;;4973838;28;20179;-84
2020/12/05 10:00:10;;;;;;;1999.90;999.90;;;6.20;99.90;;;;;;4974615;28;20247;-84
2020/12/05 10:02:40;;;;;;;1999.90;999.90;;;6.30;99.90;;;;;;4958060;28;20594;-84
2020/12/05 10:05:13;;;;;;;1999.90;999.90;;;6.40;99.90;;;;;;4977400;28;20246;-85
2020/12/05 10:10:46;;;;;;;1999.90;999.90;;;6.50;99.90;;;;;;4964812;28;20178;-85
2020/12/05 10:13:12;;;;;;;1999.90;999.90;;;6.50;99.90;;;;;;4978621;28;20726;-85
2020/12/05 10:16:27;;;;;;;1999.90;999.90;;;6.60;99.90;;;;;;4978979;28;20182;-85
2020/12/05 10:22:06;;;;;;;1999.90;999.90;;;6.50;99.90;;;;;;4978794;28;20175;-85
2020/12/05 10:24:38;;;;;;;1999.90;999.90;;;6.50;99.90;;;;;;4962310;28;20171;-85
2020/12/05 10:27:07;;;;;;;1999.90;999.90;;;6.60;99.90;;;;;;4979197;28;20168;-85
2020/12/05 10:29:36;;;;;;;1999.90;999.90;;;6.50;99.90;;;;;;4978421;28;20639;-85
2020/12/05 10:32:02;;;;;;;1999.90;999.90;;;6.60;99.90;;;;;;4978594;28;20182;-85
2020/12/05 10:34:30;;;;;;;1999.90;999.90;;;6.60;99.90;;;;;;4978763;28;20187;-85
2020/12/05 10:36:56;;;;;;;1999.90;999.90;;;6.60;99.90;;;;;;4960920;28;20418;-85
2020/12/05 10:39:37;;;;;;;1999.90;999.90;;;6.60;99.90;;;;;;4979245;28;20159;-85
2020/12/05 10:42:11;;;;;;;1999.90;999.90;;;6.70;99.90;;;;;;4981216;28;20391;-86
2020/12/05 10:44:40;;;;;;;1999.90;999.90;;;6.70;99.90;;;;;;4963150;28;20167;-85
2020/12/05 10:47:09;;;;;;;1999.90;999.90;;;6.80;99.90;;;;;;4962781;28;20270;-86
2020/12/05 10:49:51;;;;;;;1999.90;999.90;;;6.80;99.90;;;;;;4979916;28;20242;-85
2020/12/05 10:52:45;;;;;;;1999.90;999.90;;;6.80;99.90;;;;;;4961532;28;20611;-86
2020/12/05 10:55:14;;;;;;;1999.90;999.90;;;7.00;99.90;;;;;;4962833;28;20170;-86
2020/12/05 10:57:42;;;;;;;1999.90;999.90;;;7.10;99.90;;;;;;4978210;28;20168;-85
2020/12/05 11:00:08;;;;;;;1999.90;999.90;;;7.10;99.90;;;;;;4977872;28;20164;-85
2020/12/05 11:02:36;;;;;;;1999.90;999.90;;;7.20;99.90;;;;;;4976646;28;20665;-85
2020/12/05 11:05:02;;;;;;;1999.90;999.90;;;7.20;99.90;;;;;;4976762;28;20410;-85
2020/12/05 11:07:34;;;;;;;1999.90;999.90;;;7.20;99.90;;;;;;4977667;28;20242;-86
2020/12/05 11:10:00;;;;;;;1999.90;999.90;;;7.10;99.90;;;;;;4960117;28;20179;-85
2020/12/05 11:12:37;;;;;;;1999.90;999.90;;;7.20;99.90;;;;;;4977255;28;20186;-86
2020/12/05 11:15:08;;;;;;;1999.90;999.90;;;7.30;99.90;;;;;;4959844;28;20645;-85
2020/12/05 11:17:34;;;;;;;1999.90;999.90;;;7.30;99.90;;;;;;4978046;28;20237;-85
2020/12/05 11:20:03;;;;;;;1999.90;999.90;;;7.30;99.90;;;;;;4977304;28;20246;-85
2020/12/05 11:22:31;;;;;;;1999.90;999.90;;;7.40;99.90;;;;;;4978073;28;20539;-85
2020/12/05 11:24:59;;;;;;;1999.90;999.90;;;7.30;99.90;;;;;;4977447;28;20163;-85
2020/12/05 11:27:25;;;;;;;1999.90;999.90;;;7.10;99.90;;;;;;4960278;28;20270;-85
2020/12/05 11:29:52;;;;;;;1999.90;999.90;;;7.00;99.90;;;;;;4976005;28;20271;-85
2020/12/05 11:32:19;;;;;;;1999.90;999.90;;;7.00;99.90;;;;;;4977322;28;20222;-85
2020/12/05 11:34:45;;;;;;;1999.90;999.90;;;7.10;99.90;;;;;;4977505;28;20512;-85
2020/12/05 11:37:11;;;;;;;1999.90;999.90;;;7.00;99.90;;;;;;4977530;28;20161;-85
2020/12/05 11:39:45;;;;;;;1999.90;999.90;;;7.00;99.90;;;;;;4977888;28;20160;-86
2020/12/05 11:42:15;;;;;;;1999.90;999.90;;;6.90;99.90;;;;;;4977851;28;20179;-85
2020/12/05 11:44:40;;;;;;;1999.90;999.90;;;7.00;99.90;;;;;;4977675;28;20155;-85
2020/12/05 11:47:09;;;;;;;1999.90;999.90;;;7.00;99.90;;;;;;4977884;28;20223;-85
2020/12/05 11:49:35;;;;;;;1999.90;999.90;;;7.00;99.90;;;;;;4976260;28;20221;-85
2020/12/05 11:52:03;;;;;;;1999.90;999.90;;;6.90;99.90;;;;;;4977367;28;20167;-85
2020/12/05 11:54:29;;;;;;;1999.90;999.90;;;7.00;99.90;;;;;;4977281;28;20209;-85
2020/12/05 11:56:54;;;;;;;1999.90;999.90;;;7.00;99.90;;;;;;4977726;28;20284;-85
2020/12/05 11:59:31;;;;;;;1999.90;999.90;;;7.00;99.90;;;;;;4978771;28;20214;-85
2020/12/05 12:02:00;;;;;;;1999.90;999.90;;;7.00;99.90;;;;;;4978286;28;20406;-85
2020/12/05 12:04:31;;;;;;;1999.90;999.90;;;7.00;99.90;;;;;;4981640;28;20219;-86
2020/12/05 12:07:00;;;;;;;1999.90;999.90;;;6.90;99.90;;;;;;4985608;28;20175;-86
2020/12/05 12:09:25;;;;;;;1999.90;999.90;;;6.90;99.90;;;;;;4985815;28;20199;-86
2020/12/05 12:11:51;;;;;;;1999.90;999.90;;;7.00;99.90;;;;;;4985582;28;20200;-85
2020/12/05 12:14:17;;;;;;;1999.90;999.90;;;7.00;99.90;;;;;;4985397;28;20175;-85
2020/12/05 12:16:42;;;;;;;1999.90;999.90;;;7.00;99.90;;;;;;4986326;28;20221;-85
2020/12/05 12:19:11;;;;;;;1999.90;999.90;;;7.00;99.90;;;;;;4985297;28;20226;-85
2020/12/05 12:21:37;;;;;;;1999.90;999.90;;;7.00;99.90;;;;;;4985578;28;20191;-85
2020/12/05 12:24:05;;;;;;;1999.90;999.90;;;6.90;99.90;;;;;;4984408;28;20603;-85
2020/12/05 12:26:34;;;;;;;1999.90;999.90;;;6.90;99.90;;;;;;4983998;28;20168;-86
2020/12/05 12:29:00;;;;;;;1999.90;999.90;;;6.90;99.90;;;;;;4984208;28;20171;-86
2020/12/05 12:31:26;;;;;;;1999.90;999.90;;;6.90;99.90;;;;;;4985540;28;20204;-85